createdAt,value
2019-02-02T00:01:02.130Z,2.30
2019-02-02T00:03:29.973Z,2.30
2019-02-02T00:05:58.236Z,2.40
2019-02-02T00:08:25.780Z,2.40
2019-02-02T00:10:53.358Z,2.40
2019-02-02T00:13:20.954Z,2.40
2019-02-02T00:15:49.764Z,2.40
2019-02-02T00:18:17.620Z,2.40
2019-02-02T00:20:45.078Z,2.40
2019-02-02T00:23:13.193Z,2.40
2019-02-02T00:25:41.236Z,2.40
2019-02-02T00:28:14.770Z,2.40
2019-02-02T00:30:42.566Z,2.40
2019-02-02T00:33:10.733Z,2.40
2019-02-02T00:35:38.682Z,2.40
2019-02-02T00:38:06.308Z,2.40
2019-02-02T00:40:33.773Z,2.40
2019-02-02T00:43:01.560Z,2.50
2019-02-02T00:45:29.029Z,2.40
2019-02-02T00:47:56.551Z,2.50
2019-02-02T00:50:24.024Z,2.40
2019-02-02T00:52:52.233Z,2.40
2019-02-02T00:55:20.365Z,2.30
2019-02-02T00:57:53.620Z,2.30
2019-02-02T01:00:17.147Z,2.30
2019-02-02T01:02:44.762Z,2.20
2019-02-02T01:05:13.835Z,2.20
2019-02-02T01:07:41.593Z,2.20
2019-02-02T01:10:23.795Z,2.30
2019-02-02T01:12:51.804Z,2.30
2019-02-02T01:15:19.723Z,2.40
2019-02-02T01:17:47.234Z,2.40
2019-02-02T01:20:15.399Z,2.30
2019-02-02T01:22:43.095Z,2.30
2019-02-02T01:25:12.279Z,2.30
2019-02-02T01:27:40.136Z,2.30
2019-02-02T01:30:09.748Z,2.30
2019-02-02T01:32:37.506Z,2.40
2019-02-02T01:35:07.471Z,2.40
2019-02-02T01:37:34.998Z,2.50
2019-02-02T01:40:02.825Z,2.40
2019-02-02T01:42:30.355Z,2.50
2019-02-02T01:44:57.837Z,2.40
2019-02-02T01:47:25.436Z,2.60
2019-02-02T01:49:52.951Z,2.50
2019-02-02T01:52:20.460Z,2.50
2019-02-02T01:54:47.975Z,2.50
2019-02-02T01:57:15.725Z,2.40
2019-02-02T01:59:43.574Z,2.40
2019-02-02T02:02:11.102Z,2.50
2019-02-02T02:04:38.654Z,2.50
2019-02-02T02:07:06.208Z,2.50
2019-02-02T02:09:33.712Z,2.40
2019-02-02T02:12:01.697Z,2.40
2019-02-02T02:14:29.888Z,2.40
2019-02-02T02:16:57.739Z,2.40
2019-02-02T02:19:26.600Z,2.40
2019-02-02T02:21:54.494Z,2.40
2019-02-02T02:24:30.652Z,2.40
2019-02-02T02:26:58.566Z,2.40
2019-02-02T02:29:28.347Z,2.40
2019-02-02T02:31:55.854Z,2.30
2019-02-02T02:34:30.153Z,2.40
2019-02-02T02:36:57.633Z,2.40
2019-02-02T02:39:25.148Z,2.40
2019-02-02T02:41:55.243Z,2.50
2019-02-02T02:44:22.709Z,2.40
2019-02-02T02:46:50.597Z,2.40
2019-02-02T02:49:18.070Z,2.40
2019-02-02T02:51:45.862Z,2.40
2019-02-02T02:54:13.335Z,2.40
2019-02-02T02:56:41.124Z,2.40
2019-02-02T02:59:08.619Z,2.50
2019-02-02T03:01:36.375Z,2.40
2019-02-02T03:04:04.440Z,2.50
2019-02-02T03:06:31.942Z,2.50
2019-02-02T03:08:59.739Z,2.50
2019-02-02T03:11:27.225Z,2.50
2019-02-02T03:13:56.717Z,2.50
2019-02-02T03:16:24.167Z,2.40
2019-02-02T03:18:51.657Z,2.40
2019-02-02T03:21:19.236Z,2.40
2019-02-02T03:23:47.248Z,2.30
2019-02-02T03:26:15.228Z,2.30
2019-02-02T03:28:53.104Z,2.40
2019-02-02T03:31:12.977Z,2.30
2019-02-02T03:33:40.808Z,2.30
2019-02-02T03:36:08.344Z,2.40
2019-02-02T03:38:36.177Z,2.40
2019-02-02T03:41:03.721Z,2.40
2019-02-02T03:43:31.180Z,2.50
2019-02-02T03:45:58.967Z,2.40
2019-02-02T03:48:26.423Z,2.40
2019-02-02T03:50:54.289Z,2.30
2019-02-02T03:53:21.810Z,2.40
2019-02-02T03:55:49.360Z,2.40
2019-02-02T03:58:17.137Z,2.40
2019-02-02T04:00:44.632Z,2.40
2019-02-02T04:03:12.322Z,2.50
2019-02-02T04:05:39.779Z,2.50
2019-02-02T04:08:07.249Z,2.50
2019-02-02T04:10:34.714Z,2.50
2019-02-02T04:13:02.585Z,2.50
2019-02-02T04:15:30.421Z,2.50
2019-02-02T04:17:58.224Z,2.50
2019-02-02T04:20:25.714Z,2.50
2019-02-02T04:22:53.390Z,3.10
2019-02-02T04:25:22.032Z,2.40
2019-02-02T04:27:49.930Z,2.40
2019-02-02T04:30:19.617Z,2.40
2019-02-02T04:32:47.180Z,2.40
2019-02-02T04:35:14.642Z,2.30
2019-02-02T04:37:42.198Z,2.40
2019-02-02T04:40:10.666Z,2.40
2019-02-02T04:42:38.211Z,2.40
2019-02-02T04:45:07.351Z,2.50
2019-02-02T04:47:35.108Z,2.50
2019-02-02T04:50:03.482Z,2.50
2019-02-02T04:52:30.991Z,2.50
2019-02-02T04:54:59.871Z,2.60
2019-02-02T04:57:27.417Z,2.60
2019-02-02T04:59:55.316Z,2.60
2019-02-02T05:02:23.527Z,2.60
2019-02-02T05:04:51.030Z,2.60
2019-02-02T05:07:18.780Z,2.60
2019-02-02T05:09:47.231Z,2.60
2019-02-02T05:12:15.757Z,2.60
2019-02-02T05:14:43.308Z,2.60
2019-02-02T05:17:11.185Z,2.60
2019-02-02T05:19:39.013Z,2.60
2019-02-02T05:22:06.496Z,2.60
2019-02-02T05:24:33.968Z,2.60
2019-02-02T05:27:01.451Z,2.60
2019-02-02T05:29:40.756Z,2.70
2019-02-02T05:32:01.032Z,2.60
2019-02-02T05:34:28.501Z,2.50
2019-02-02T05:36:56.876Z,2.50
2019-02-02T05:39:26.879Z,2.40
2019-02-02T05:41:54.354Z,2.50
2019-02-02T05:44:21.868Z,2.50
2019-02-02T05:46:49.404Z,2.50
2019-02-02T05:49:36.743Z,2.50
2019-02-02T05:52:04.304Z,2.50
2019-02-02T05:54:32.085Z,2.60
2019-02-02T05:56:59.915Z,2.50
2019-02-02T05:59:29.402Z,2.60
2019-02-02T06:01:56.948Z,2.60
2019-02-02T06:04:24.439Z,2.60
2019-02-02T06:06:51.972Z,2.50
2019-02-02T06:09:19.505Z,2.60
2019-02-02T06:11:46.968Z,2.60
2019-02-02T06:14:14.439Z,2.60
2019-02-02T06:16:41.922Z,2.60
2019-02-02T06:19:09.393Z,2.50
2019-02-02T06:21:37.237Z,2.50
2019-02-02T06:24:05.165Z,2.50
2019-02-02T06:26:33.075Z,2.40
2019-02-02T06:29:01.003Z,2.40
2019-02-02T06:31:28.513Z,2.50
2019-02-02T06:33:56.069Z,2.40
2019-02-02T06:36:23.562Z,2.40
2019-02-02T06:38:51.749Z,2.50
2019-02-02T06:41:20.259Z,2.50
2019-02-02T06:43:48.044Z,2.50
2019-02-02T06:46:15.925Z,2.50
2019-02-02T06:48:43.399Z,2.50
2019-02-02T06:51:10.973Z,2.50
2019-02-02T06:53:38.513Z,2.60
2019-02-02T06:56:06.238Z,2.60
2019-02-02T06:58:34.041Z,2.70
2019-02-02T07:01:01.936Z,2.80
2019-02-02T07:03:29.493Z,2.70
2019-02-02T07:05:57.016Z,2.70
2019-02-02T07:08:25.276Z,2.70
2019-02-02T07:10:53.127Z,2.60
2019-02-02T07:13:20.710Z,2.50
2019-02-02T07:15:48.176Z,2.60
2019-02-02T07:18:15.643Z,2.60
2019-02-02T07:20:43.377Z,2.60
2019-02-02T07:23:10.776Z,2.60
2019-02-02T07:25:38.218Z,2.70
2019-02-02T07:28:05.948Z,2.70
2019-02-02T07:30:33.667Z,2.70
2019-02-02T07:33:01.483Z,2.70
2019-02-02T07:35:29.654Z,2.70
2019-02-02T07:37:58.814Z,2.70
2019-02-02T07:40:26.853Z,2.80
2019-02-02T07:42:54.701Z,2.80
2019-02-02T07:45:25.024Z,2.80
2019-02-02T07:47:53.812Z,2.80
2019-02-02T07:50:21.281Z,2.80
2019-02-02T07:52:51.456Z,2.80
2019-02-02T07:55:19.401Z,2.80
2019-02-02T07:57:46.863Z,2.70
2019-02-02T08:00:20.994Z,2.80
2019-02-02T08:02:48.894Z,2.80
2019-02-02T08:05:16.927Z,2.70
2019-02-02T08:07:44.418Z,2.80
2019-02-02T08:10:12.469Z,2.70
2019-02-02T08:12:40.329Z,2.70
2019-02-02T08:15:10.607Z,2.80
2019-02-02T08:17:38.318Z,2.70
2019-02-02T08:20:07.827Z,2.60
2019-02-02T08:22:35.895Z,2.70
2019-02-02T08:25:04.366Z,2.60
2019-02-02T08:27:31.857Z,2.50
2019-02-02T08:30:00.440Z,2.60
2019-02-02T08:32:28.187Z,2.60
2019-02-02T08:34:55.621Z,2.70
2019-02-02T08:37:23.931Z,2.60
2019-02-02T08:39:51.767Z,2.70
2019-02-02T08:42:19.266Z,2.80
2019-02-02T08:44:46.734Z,2.80
2019-02-02T08:47:17.719Z,2.80
2019-02-02T08:49:45.826Z,2.80
2019-02-02T08:52:13.756Z,2.80
2019-02-02T08:54:41.387Z,2.90
2019-02-02T08:57:09.858Z,2.90
2019-02-02T08:59:38.164Z,2.90
2019-02-02T09:02:07.094Z,2.90
2019-02-02T09:04:34.869Z,2.90
2019-02-02T09:07:03.406Z,2.90
2019-02-02T09:09:31.275Z,2.90
2019-02-02T09:12:00.613Z,2.90
2019-02-02T09:14:28.217Z,2.90
2019-02-02T09:16:55.927Z,2.80
2019-02-02T09:19:23.654Z,2.90
2019-02-02T09:21:51.670Z,2.80
2019-02-02T09:24:19.181Z,2.80
2019-02-02T09:26:47.106Z,2.80
2019-02-02T09:29:15.195Z,2.80
2019-02-02T09:31:42.617Z,2.90
2019-02-02T09:34:10.418Z,2.80
2019-02-02T09:36:38.310Z,2.90
2019-02-02T09:39:07.343Z,3.00
2019-02-02T09:41:35.297Z,3.10
2019-02-02T09:44:03.154Z,3.20
2019-02-02T09:46:31.139Z,3.00
2019-02-02T09:48:58.644Z,2.90
2019-02-02T09:51:26.420Z,2.90
2019-02-02T09:53:53.898Z,3.00
2019-02-02T09:56:21.339Z,3.00
2019-02-02T09:58:49.231Z,3.00
2019-02-02T10:01:27.372Z,3.00
2019-02-02T10:03:46.751Z,3.10
2019-02-02T10:06:14.417Z,3.20
2019-02-02T10:08:42.593Z,3.30
2019-02-02T10:11:10.675Z,3.40
2019-02-02T10:13:38.510Z,3.40
2019-02-02T10:16:06.861Z,3.50
2019-02-02T10:18:40.715Z,3.50
2019-02-02T10:21:08.205Z,3.60
2019-02-02T10:23:36.288Z,3.50
2019-02-02T10:26:04.339Z,3.50
2019-02-02T10:28:32.818Z,3.50
2019-02-02T10:31:01.413Z,3.60
2019-02-02T10:36:04.826Z,3.40
2019-02-02T10:38:33.660Z,3.40
2019-02-02T10:41:01.363Z,3.50
2019-02-02T10:43:28.848Z,3.70
2019-02-02T10:45:56.939Z,3.70
2019-02-02T10:48:24.920Z,3.80
2019-02-02T10:50:52.658Z,3.90
2019-02-02T10:53:20.275Z,4.00
2019-02-02T10:55:47.742Z,4.10
2019-02-02T10:58:15.202Z,4.20
2019-02-02T11:00:42.807Z,4.20
2019-02-02T11:03:10.927Z,4.40
2019-02-02T11:05:39.114Z,4.30
2019-02-02T11:08:07.500Z,4.30
2019-02-02T11:10:36.732Z,4.50
2019-02-02T11:13:06.783Z,4.40
2019-02-02T11:15:35.185Z,4.40
2019-02-02T11:18:02.860Z,4.30
2019-02-02T11:20:31.778Z,4.40
2019-02-02T11:22:59.525Z,4.50
2019-02-02T11:25:27.358Z,4.50
2019-02-02T11:27:54.951Z,4.60
2019-02-02T11:30:23.050Z,4.90
2019-02-02T11:32:50.571Z,4.90
2019-02-02T11:35:18.216Z,5.00
2019-02-02T11:37:47.156Z,5.00
2019-02-02T11:40:34.475Z,5.20
2019-02-02T11:43:02.067Z,5.40
2019-02-02T11:45:29.714Z,5.30
2019-02-02T11:48:04.588Z,5.40
2019-02-02T11:50:32.371Z,5.40
2019-02-02T11:53:00.411Z,5.70
2019-02-02T11:55:28.004Z,5.70
2019-02-02T11:57:55.758Z,6.00
2019-02-02T12:00:25.944Z,6.20
2019-02-02T12:02:53.474Z,6.50
2019-02-02T12:05:21.080Z,6.80
2019-02-02T12:07:48.961Z,7.50
2019-02-02T12:10:17.734Z,7.50
2019-02-02T12:12:45.760Z,7.20
2019-02-02T12:15:15.523Z,7.10
2019-02-02T12:17:45.933Z,7.10
2019-02-02T12:20:17.231Z,6.40
2019-02-02T12:22:44.914Z,6.40
2019-02-02T12:25:13.081Z,6.80
2019-02-02T12:27:42.650Z,6.60
2019-02-02T12:30:13.655Z,6.70
2019-02-02T12:32:41.122Z,6.50
2019-02-02T12:35:10.950Z,6.60
2019-02-02T12:37:38.579Z,6.50
2019-02-02T12:40:07.720Z,6.20
2019-02-02T12:42:35.257Z,6.40
2019-02-02T12:45:05.522Z,6.00
2019-02-02T12:47:33.434Z,6.10
2019-02-02T12:50:02.047Z,5.70
2019-02-02T12:52:29.595Z,5.60
2019-02-02T12:54:57.535Z,5.80
2019-02-02T12:57:25.851Z,5.80
2019-02-02T12:59:53.411Z,6.10
2019-02-02T13:02:21.365Z,6.20
2019-02-02T13:04:48.807Z,6.10
2019-02-02T13:07:16.460Z,6.20
2019-02-02T13:09:44.234Z,6.30
2019-02-02T13:12:11.694Z,6.50
2019-02-02T13:14:39.151Z,6.70
2019-02-02T13:17:06.684Z,6.70
2019-02-02T13:19:34.636Z,6.70
2019-02-02T13:22:02.407Z,6.90
2019-02-02T13:24:30.282Z,6.90
2019-02-02T13:26:59.798Z,6.60
2019-02-02T13:29:28.653Z,6.80
2019-02-02T13:31:56.519Z,6.70
2019-02-02T13:34:24.391Z,6.60
2019-02-02T13:36:52.395Z,6.80
2019-02-02T13:39:20.363Z,6.60
2019-02-02T13:41:49.033Z,6.40
2019-02-02T13:45:13.915Z,6.40
2019-02-02T13:47:41.510Z,6.40
2019-02-02T13:50:12.511Z,6.50
2019-02-02T13:52:42.167Z,6.50
2019-02-02T13:55:09.808Z,6.50
2019-02-02T13:57:37.304Z,6.40
2019-02-02T14:00:07.387Z,6.50
2019-02-02T14:02:36.043Z,6.50
2019-02-02T14:05:05.409Z,6.70
2019-02-02T14:07:33.339Z,6.40
2019-02-02T14:10:21.344Z,6.50
2019-02-02T14:12:48.946Z,6.50
2019-02-02T14:15:17.065Z,6.40
2019-02-02T14:17:44.493Z,6.40
2019-02-02T14:20:12.300Z,6.40
2019-02-02T14:22:40.146Z,6.20
2019-02-02T14:25:08.898Z,6.10
2019-02-02T14:27:36.972Z,6.20
2019-02-02T14:30:08.774Z,6.20
2019-02-02T14:32:38.234Z,6.20
2019-02-02T14:35:06.407Z,6.20
2019-02-02T14:37:34.201Z,6.10
2019-02-02T14:40:02.007Z,6.20
2019-02-02T14:42:29.513Z,6.20
2019-02-02T14:44:57.494Z,6.20
2019-02-02T14:47:25.976Z,6.20
2019-02-02T14:49:53.461Z,6.10
2019-02-02T14:52:21.413Z,6.20
2019-02-02T14:54:48.904Z,6.10
2019-02-02T14:57:16.699Z,6.10
2019-02-02T14:59:44.623Z,6.10
2019-02-02T15:02:13.493Z,6.10
2019-02-02T15:04:41.687Z,6.10
2019-02-02T15:07:09.146Z,6.00
2019-02-02T15:09:37.732Z,6.00
2019-02-02T15:12:05.767Z,6.00
2019-02-02T15:14:33.249Z,6.00
2019-02-02T15:17:00.961Z,6.00
2019-02-02T15:19:29.241Z,6.00
2019-02-02T15:21:57.088Z,6.00
2019-02-02T15:24:24.551Z,5.90
2019-02-02T15:26:52.384Z,5.90
2019-02-02T15:29:20.520Z,5.90
2019-02-02T15:31:48.667Z,5.90
2019-02-02T15:34:16.804Z,6.00
2019-02-02T15:36:45.080Z,6.00
2019-02-02T15:39:12.593Z,6.00
2019-02-02T15:41:40.087Z,6.00
2019-02-02T15:44:08.559Z,5.90
2019-02-02T15:46:36.014Z,5.80
2019-02-02T15:49:04.292Z,5.80
2019-02-02T15:51:39.972Z,5.70
2019-02-02T15:54:01.629Z,5.70
2019-02-02T15:56:29.100Z,5.70
2019-02-02T15:58:56.928Z,5.60
2019-02-02T16:01:24.798Z,5.60
2019-02-02T16:04:00.038Z,5.60
2019-02-02T16:06:27.795Z,5.60
2019-02-02T16:08:55.300Z,5.60
2019-02-02T16:11:22.808Z,5.60
2019-02-02T16:13:50.286Z,5.60
2019-02-02T16:16:18.152Z,5.60
2019-02-02T16:18:45.611Z,5.60
2019-02-02T16:21:13.407Z,5.60
2019-02-02T16:23:41.215Z,5.60
2019-02-02T16:26:08.712Z,5.60
2019-02-02T16:28:36.548Z,5.60
2019-02-02T16:31:04.095Z,5.60
2019-02-02T16:33:31.532Z,5.60
2019-02-02T16:35:59.581Z,5.60
2019-02-02T16:38:27.693Z,5.60
2019-02-02T16:40:55.188Z,5.60
2019-02-02T16:43:23.494Z,5.50
2019-02-02T16:45:51.287Z,5.50
2019-02-02T16:48:18.791Z,5.50
2019-02-02T16:50:46.597Z,5.40
2019-02-02T16:53:15.143Z,5.50
2019-02-02T16:55:42.606Z,5.30
2019-02-02T16:58:10.110Z,5.20
2019-02-02T17:00:38.409Z,5.20
2019-02-02T17:03:06.091Z,5.20
2019-02-02T17:05:33.818Z,5.10
2019-02-02T17:08:01.628Z,5.10
2019-02-02T17:10:31.220Z,5.00
2019-02-02T17:12:59.497Z,4.90
2019-02-02T17:15:27.134Z,4.80
2019-02-02T17:17:55.049Z,4.60
2019-02-02T17:20:26.019Z,4.40
2019-02-02T17:22:53.870Z,4.40
2019-02-02T17:25:22.632Z,4.40
2019-02-02T17:27:50.962Z,4.30
2019-02-02T17:30:20.022Z,4.30
2019-02-02T17:32:48.551Z,4.30
2019-02-02T17:35:16.890Z,4.10
2019-02-02T17:37:48.745Z,4.10
2019-02-02T17:40:18.832Z,4.10
2019-02-02T17:42:46.970Z,4.10
2019-02-02T17:45:15.687Z,4.10
2019-02-02T17:47:43.179Z,4.00
2019-02-02T17:50:13.272Z,4.00
2019-02-02T17:52:40.869Z,3.80
2019-02-02T17:55:09.778Z,3.70
2019-02-02T17:57:38.574Z,3.50
2019-02-02T18:00:10.056Z,3.50
2019-02-02T18:02:37.936Z,3.40
2019-02-02T18:05:05.877Z,3.40
2019-02-02T18:07:33.979Z,3.30
2019-02-02T18:10:01.886Z,3.30
2019-02-02T18:12:29.322Z,3.30
2019-02-02T18:14:57.424Z,3.30
2019-02-02T18:17:25.600Z,3.30
2019-02-02T18:19:57.419Z,3.30
2019-02-02T18:22:25.004Z,3.20
2019-02-02T18:24:52.572Z,3.30
2019-02-02T18:27:22.613Z,3.30
2019-02-02T18:29:50.110Z,3.20
2019-02-02T18:32:17.949Z,3.20
2019-02-02T18:34:51.217Z,3.10
2019-02-02T18:37:14.962Z,3.00
2019-02-02T18:39:46.209Z,3.00
2019-02-02T18:42:18.335Z,3.00
2019-02-02T18:44:49.143Z,3.00
2019-02-02T18:47:16.786Z,3.00
2019-02-02T18:49:45.137Z,3.10
2019-02-02T18:52:12.797Z,3.10
2019-02-02T18:54:40.409Z,3.20
2019-02-02T18:57:09.147Z,3.20
2019-02-02T18:59:37.105Z,3.20
2019-02-02T19:02:05.623Z,3.20
2019-02-02T19:04:33.317Z,3.20
2019-02-02T19:07:07.001Z,3.20
2019-02-02T19:09:35.848Z,3.30
2019-02-02T19:12:04.280Z,3.30
2019-02-02T19:14:33.392Z,3.30
2019-02-02T19:17:05.035Z,3.40
2019-02-02T19:19:40.010Z,3.50
2019-02-02T19:22:08.094Z,3.50
2019-02-02T19:24:36.200Z,3.40
2019-02-02T19:27:05.129Z,3.40
2019-02-02T19:29:34.090Z,3.40
2019-02-02T19:32:05.105Z,3.40
2019-02-02T19:34:33.007Z,3.40
2019-02-02T19:37:03.347Z,3.50
2019-02-02T19:39:35.393Z,3.50
2019-02-02T19:42:09.750Z,3.50
2019-02-02T19:44:39.454Z,3.60
2019-02-02T19:47:15.861Z,3.60
2019-02-02T19:49:39.710Z,3.60
2019-02-02T19:52:09.347Z,3.60
2019-02-02T19:54:43.147Z,3.60
2019-02-02T19:57:11.345Z,3.60
2019-02-02T19:59:41.380Z,3.70
2019-02-02T20:02:13.337Z,3.70
2019-02-02T20:04:48.786Z,3.70
2019-02-02T20:07:18.511Z,3.60
2019-02-02T20:09:47.215Z,3.50
2019-02-02T20:12:15.878Z,3.60
2019-02-02T20:14:44.170Z,3.50
2019-02-02T20:17:14.643Z,3.50
2019-02-02T20:19:43.315Z,3.60
2019-02-02T20:22:12.124Z,3.60
2019-02-02T20:24:40.520Z,3.80
2019-02-02T20:27:09.224Z,3.80
2019-02-02T20:29:41.627Z,3.70
2019-02-02T20:32:11.986Z,3.80
2019-02-02T20:34:40.129Z,3.80
2019-02-02T20:37:08.772Z,3.80
2019-02-02T20:39:39.326Z,3.80
2019-02-02T20:42:07.876Z,3.80
2019-02-02T20:44:36.985Z,3.80
2019-02-02T20:47:05.084Z,3.80
2019-02-02T20:49:33.319Z,3.80
2019-02-02T20:52:01.654Z,3.80
2019-02-02T20:54:29.642Z,3.80
2019-02-02T20:56:57.312Z,3.80
2019-02-02T20:59:24.968Z,3.90
2019-02-02T21:01:52.992Z,3.90
2019-02-02T21:04:21.203Z,3.80
2019-02-02T21:06:50.491Z,3.80
2019-02-02T21:09:18.746Z,3.70
2019-02-02T21:11:56.624Z,3.80
2019-02-02T21:14:21.861Z,3.80
2019-02-02T21:16:51.484Z,3.80
2019-02-02T21:19:20.878Z,3.80
2019-02-02T21:21:49.190Z,3.90
2019-02-02T21:24:17.022Z,3.80
2019-02-02T21:26:45.190Z,3.80
2019-02-02T21:29:14.722Z,3.80
2019-02-02T21:31:42.677Z,3.80
2019-02-02T21:34:14.035Z,3.70
2019-02-02T21:36:42.924Z,3.70
2019-02-02T21:39:11.192Z,3.60
2019-02-02T21:41:40.326Z,3.60
2019-02-02T21:44:07.963Z,3.50
2019-02-02T21:46:36.801Z,3.50
2019-02-02T21:49:07.061Z,3.60
2019-02-02T21:51:38.064Z,3.60
2019-02-02T21:54:06.048Z,3.60
2019-02-02T21:56:33.850Z,3.60
2019-02-02T21:59:06.435Z,3.60
2019-02-02T22:01:34.452Z,3.60
2019-02-02T22:04:03.717Z,3.50
2019-02-02T22:06:31.595Z,3.50
2019-02-02T22:08:59.559Z,3.50
2019-02-02T22:11:27.086Z,3.60
2019-02-02T22:13:55.069Z,3.60
2019-02-02T22:16:22.842Z,3.60
2019-02-02T22:18:51.156Z,3.60
2019-02-02T22:21:19.320Z,3.50
2019-02-02T22:23:47.507Z,3.40
2019-02-02T22:26:15.240Z,3.50
2019-02-02T22:28:45.021Z,3.60
2019-02-02T22:31:12.896Z,3.60
2019-02-02T22:33:40.417Z,3.50
2019-02-02T22:36:08.282Z,3.60
2019-02-02T22:38:36.678Z,3.50
2019-02-02T22:41:06.964Z,3.40
2019-02-02T22:43:34.005Z,3.40
2019-02-02T22:46:01.856Z,3.40
2019-02-02T22:48:30.740Z,3.40
2019-02-02T22:50:58.397Z,3.40
2019-02-02T22:53:26.938Z,3.30
2019-02-02T22:55:54.671Z,3.40
2019-02-02T22:58:22.619Z,3.40
2019-02-02T23:01:03.062Z,3.40
2019-02-02T23:03:45.627Z,3.40
2019-02-02T23:06:39.620Z,3.40
2019-02-02T23:10:00.344Z,3.40
2019-02-02T23:13:02.168Z,3.50
2019-02-02T23:16:26.489Z,3.50
2019-02-02T23:18:54.332Z,3.50
2019-02-02T23:21:22.682Z,3.60
2019-02-02T23:23:50.854Z,3.50
2019-02-02T23:26:18.760Z,3.50
2019-02-02T23:28:46.627Z,3.40
2019-02-02T23:31:14.613Z,3.50
2019-02-02T23:33:42.382Z,3.50
2019-02-02T23:36:12.144Z,3.40
2019-02-02T23:38:39.941Z,3.40
2019-02-02T23:41:07.547Z,3.30
2019-02-02T23:43:35.442Z,3.30
2019-02-02T23:46:03.140Z,3.40
2019-02-02T23:48:34.834Z,3.40
2019-02-02T23:51:02.604Z,3.40
2019-02-02T23:53:30.076Z,3.40
2019-02-02T23:55:57.606Z,3.30
2019-02-02T23:58:25.162Z,3.40
